Terminal Aerodrome Forecast
Issued by NWS

Home | Current Version | Previous Version | Text Only | Print | Product List | Glossary On
Versions: 1 2 3 4 5 6 7 8 9 10 11 12 13 14 15 16 17 18 19
000
FTPA31 PHFO 211120
TAFHNY
TAF
PHNY 211120Z 2112/2212 07009KT P6SM FEW030 FEW045
     FM212100 04018G28KT P6SM VCSH SCT025 BKN035
      TEMPO 2200/2204 4SM SHRA BKN020 OVC035=

USA.gov is the U.S. government's official web portal to all federal, state and local government web resources and services.